createdAt,value
2023-03-01T00:00:24.975Z,58.40
2023-03-01T00:03:48.642Z,58.48
2023-03-01T00:06:52.264Z,58.57
2023-03-01T00:09:55.530Z,58.30
2023-03-01T00:12:58.752Z,58.53
2023-03-01T00:16:06.663Z,58.32
2023-03-01T00:19:20.779Z,58.34
2023-03-01T00:22:24.486Z,58.25
2023-03-01T00:25:27.740Z,58.53
2023-03-01T00:28:30.970Z,58.45
2023-03-01T00:31:35.244Z,58.21
2023-03-01T00:34:38.524Z,58.48
2023-03-01T00:37:42.460Z,58.31
2023-03-01T00:40:45.703Z,58.65
2023-03-01T00:43:49.443Z,58.50
2023-03-01T00:46:52.674Z,58.48
2023-03-01T00:49:55.853Z,58.62
2023-03-01T00:52:59.261Z,58.67
2023-03-01T00:56:03.660Z,58.75
2023-03-01T00:59:06.888Z,58.52
2023-03-01T01:02:10.275Z,58.47
2023-03-01T01:05:13.801Z,58.37
2023-03-01T01:08:17.023Z,58.60
2023-03-01T01:11:21.739Z,58.39
2023-03-01T01:14:25.031Z,58.57
2023-03-01T01:17:28.319Z,58.50
2023-03-01T01:20:33.816Z,58.49
2023-03-01T01:23:38.449Z,58.77
2023-03-01T01:26:42.786Z,58.73
2023-03-01T01:29:46.087Z,59.01
2023-03-01T01:32:49.351Z,58.66
2023-03-01T01:35:53.288Z,58.77
2023-03-01T01:38:56.655Z,58.83
2023-03-01T01:42:01.850Z,58.88
2023-03-01T01:45:33.103Z,58.82
2023-03-01T01:48:47.701Z,59.02
2023-03-01T01:51:55.077Z,58.80
2023-03-01T01:55:12.795Z,58.85
2023-03-01T01:58:20.273Z,58.68
2023-03-01T02:01:23.813Z,58.68
2023-03-01T02:04:27.301Z,58.65
2023-03-01T02:07:31.349Z,58.84
2023-03-01T02:10:35.952Z,58.85
2023-03-01T02:13:40.193Z,58.98
2023-03-01T02:16:44.123Z,59.07
2023-03-01T02:20:15.355Z,59.10
2023-03-01T02:23:18.922Z,59.03
2023-03-01T02:26:35.981Z,59.24
2023-03-01T02:29:39.603Z,58.79
2023-03-01T02:32:43.145Z,58.93
2023-03-01T02:35:46.851Z,58.97
2023-03-01T02:38:54.479Z,59.02
2023-03-01T02:42:00.003Z,59.12
2023-03-01T02:45:04.383Z,59.01
2023-03-01T02:48:07.758Z,59.21
2023-03-01T02:51:43.699Z,59.09
2023-03-01T02:54:59.097Z,59.12
2023-03-01T02:58:04.448Z,58.96
2023-03-01T03:01:10.276Z,59.05
2023-03-01T03:04:19.127Z,59.28
2023-03-01T03:07:23.991Z,59.30
2023-03-01T03:10:33.535Z,59.23
2023-03-01T03:13:36.800Z,59.19
2023-03-01T03:16:46.072Z,59.34
2023-03-01T03:19:49.542Z,59.50
2023-03-01T03:22:55.100Z,59.15
2023-03-01T03:25:58.237Z,59.17
2023-03-01T03:29:01.998Z,59.58
2023-03-01T03:32:05.382Z,59.35
2023-03-01T03:35:10.835Z,59.26
2023-03-01T03:38:16.921Z,59.28
2023-03-01T03:41:20.174Z,59.33
2023-03-01T03:44:23.382Z,59.32
2023-03-01T03:47:26.649Z,59.37
2023-03-01T03:50:30.340Z,59.54
2023-03-01T03:53:33.652Z,59.59
2023-03-01T03:56:37.643Z,59.33
2023-03-01T03:59:41.947Z,59.46
2023-03-01T04:02:46.223Z,59.31
2023-03-01T04:05:51.652Z,59.30
2023-03-01T04:08:59.222Z,59.53
2023-03-01T04:12:02.445Z,59.15
2023-03-01T04:15:14.094Z,59.28
2023-03-01T04:18:18.936Z,59.33
2023-03-01T04:21:22.835Z,59.23
2023-03-01T04:24:26.091Z,59.37
2023-03-01T04:27:29.543Z,59.31
2023-03-01T04:30:36.748Z,59.55
2023-03-01T04:33:55.087Z,59.40
2023-03-01T04:36:58.346Z,59.58
2023-03-01T04:40:13.310Z,59.75
2023-03-01T04:43:16.605Z,59.67
2023-03-01T04:46:21.986Z,59.73
2023-03-01T04:49:25.336Z,59.90
2023-03-01T04:52:28.539Z,59.72
2023-03-01T04:55:32.571Z,59.59
2023-03-01T04:58:35.996Z,59.52
2023-03-01T05:01:40.185Z,59.43
2023-03-01T05:04:43.457Z,59.64
2023-03-01T05:07:46.652Z,59.78
2023-03-01T05:10:52.523Z,59.46
2023-03-01T05:13:56.494Z,59.55
2023-03-01T05:17:04.946Z,59.63
2023-03-01T05:20:11.860Z,59.69
2023-03-01T05:23:15.080Z,59.88
2023-03-01T05:26:28.785Z,59.91
2023-03-01T05:29:35.877Z,59.94
2023-03-01T05:32:39.093Z,60.05
2023-03-01T05:35:44.212Z,59.80
2023-03-01T05:38:47.416Z,59.87
2023-03-01T05:42:02.192Z,59.99
2023-03-01T05:45:05.688Z,59.91
2023-03-01T05:48:10.199Z,59.76
2023-03-01T05:51:13.449Z,59.71
2023-03-01T05:54:17.111Z,59.90
2023-03-01T05:57:21.296Z,59.94
2023-03-01T06:00:24.723Z,60.03
2023-03-01T06:03:27.948Z,60.21
2023-03-01T06:06:35.715Z,60.13
2023-03-01T06:09:38.905Z,60.16
2023-03-01T06:12:43.486Z,60.04
2023-03-01T06:15:46.718Z,60.41
2023-03-01T06:18:49.972Z,60.19
2023-03-01T06:21:53.264Z,60.20
2023-03-01T06:24:56.519Z,60.21
2023-03-01T06:27:59.813Z,60.45
2023-03-01T06:31:03.504Z,60.48
2023-03-01T06:34:06.790Z,60.74
2023-03-01T06:37:10.058Z,60.57
2023-03-01T06:40:14.892Z,60.57
2023-03-01T06:43:18.226Z,60.65
2023-03-01T06:46:22.632Z,60.96
2023-03-01T06:49:25.932Z,60.79
2023-03-01T06:52:30.492Z,60.91
2023-03-01T06:55:33.883Z,61.03
2023-03-01T06:58:37.610Z,61.08
2023-03-01T07:01:40.912Z,61.08
2023-03-01T07:04:44.166Z,61.19
2023-03-01T07:07:47.464Z,61.41
2023-03-01T07:10:56.966Z,61.32
2023-03-01T07:14:01.142Z,61.45
2023-03-01T07:17:04.373Z,61.46
2023-03-01T07:20:07.960Z,61.31
2023-03-01T07:23:11.204Z,61.19
2023-03-01T07:26:14.367Z,61.35
2023-03-01T07:29:18.796Z,61.22
2023-03-01T07:32:22.161Z,61.33
2023-03-01T07:35:28.503Z,61.36
2023-03-01T07:38:32.398Z,61.07
2023-03-01T07:41:35.770Z,60.47
2023-03-01T07:44:39.080Z,60.49
2023-03-01T07:47:42.418Z,60.27
2023-03-01T07:50:48.944Z,60.10
2023-03-01T07:53:52.166Z,59.80
2023-03-01T07:58:09.815Z,59.84
2023-03-01T08:01:16.541Z,59.78
2023-03-01T08:04:20.081Z,59.77
2023-03-01T08:07:23.491Z,59.46
2023-03-01T08:10:26.902Z,59.22
2023-03-01T08:13:31.008Z,58.87
2023-03-01T08:16:36.397Z,58.88
2023-03-01T08:19:39.730Z,58.79
2023-03-01T08:22:43.025Z,58.78
2023-03-01T08:25:46.327Z,58.41
2023-03-01T08:28:50.656Z,58.18
2023-03-01T08:31:54.184Z,58.01
2023-03-01T08:34:57.780Z,57.99
2023-03-01T08:38:01.350Z,57.95
2023-03-01T08:41:05.490Z,57.82
2023-03-01T08:44:10.605Z,57.45
2023-03-01T08:47:14.152Z,57.29
2023-03-01T08:50:17.521Z,57.32
2023-03-01T08:53:20.902Z,57.20
2023-03-01T08:56:24.182Z,57.17
2023-03-01T08:59:28.122Z,56.82
2023-03-01T09:02:31.587Z,56.83
2023-03-01T09:05:35.528Z,56.55
2023-03-01T09:08:41.378Z,56.47
2023-03-01T09:11:51.178Z,56.56
2023-03-01T09:14:57.819Z,56.07
2023-03-01T09:18:01.471Z,55.91
2023-03-01T09:21:09.707Z,56.14
2023-03-01T09:24:15.795Z,55.77
2023-03-01T09:27:20.722Z,55.50
2023-03-01T09:30:25.264Z,55.19
2023-03-01T09:33:30.924Z,54.95
2023-03-01T09:36:35.160Z,54.60
2023-03-01T09:39:38.508Z,54.51
2023-03-01T09:42:53.771Z,54.32
2023-03-01T09:46:04.580Z,54.18
2023-03-01T09:49:15.463Z,53.78
2023-03-01T09:52:28.000Z,53.48
2023-03-01T09:55:32.867Z,53.17
2023-03-01T09:58:40.952Z,53.05
2023-03-01T10:02:22.666Z,52.98
2023-03-01T10:05:44.293Z,52.86
2023-03-01T10:08:56.055Z,52.61
2023-03-01T10:12:02.462Z,52.34
2023-03-01T10:15:13.695Z,51.93
2023-03-01T10:18:22.469Z,51.65
2023-03-01T10:21:28.448Z,51.92
2023-03-01T10:24:36.646Z,51.81
2023-03-01T10:27:45.702Z,51.91
2023-03-01T10:30:49.216Z,51.70
2023-03-01T10:33:56.044Z,51.39
2023-03-01T10:37:11.069Z,51.09
2023-03-01T10:40:14.570Z,50.97
2023-03-01T10:43:18.698Z,50.90
2023-03-01T10:46:29.843Z,50.63
2023-03-01T10:49:33.215Z,50.61
2023-03-01T10:52:38.869Z,50.54
2023-03-01T10:55:42.321Z,50.18
2023-03-01T10:59:21.075Z,49.75
2023-03-01T11:02:31.165Z,49.47
2023-03-01T11:05:34.764Z,49.10
2023-03-01T11:08:44.303Z,48.69
2023-03-01T11:11:56.038Z,48.26
2023-03-01T11:14:59.379Z,48.01
2023-03-01T11:18:13.929Z,47.50
2023-03-01T11:21:18.272Z,47.03
2023-03-01T11:24:30.202Z,46.84
2023-03-01T11:27:37.197Z,46.47
2023-03-01T11:31:06.738Z,46.45
2023-03-01T11:34:18.877Z,46.18
2023-03-01T11:37:33.687Z,45.90
2023-03-01T11:40:43.432Z,45.79
2023-03-01T11:44:12.841Z,45.69
2023-03-01T11:47:44.819Z,45.74
2023-03-01T11:50:49.965Z,45.74
2023-03-01T11:54:28.576Z,45.40
2023-03-01T11:57:43.811Z,45.16
2023-03-01T12:01:15.278Z,45.05
2023-03-01T12:04:42.930Z,44.71
2023-03-01T12:07:55.251Z,44.41
2023-03-01T12:11:13.476Z,44.16
2023-03-01T12:14:35.166Z,43.89
2023-03-01T12:18:13.785Z,43.76
2023-03-01T12:21:33.506Z,43.56
2023-03-01T12:24:58.622Z,43.47
2023-03-01T12:28:04.811Z,43.18
2023-03-01T12:31:31.357Z,42.46
2023-03-01T12:34:42.626Z,42.30
2023-03-01T12:38:12.349Z,41.80
2023-03-01T12:41:37.256Z,41.17
2023-03-01T12:44:40.529Z,40.70
2023-03-01T12:48:16.564Z,40.95
2023-03-01T12:51:25.365Z,40.95
2023-03-01T12:54:32.760Z,40.72
2023-03-01T12:57:44.127Z,40.61
2023-03-01T13:00:54.012Z,40.64
2023-03-01T13:04:00.975Z,40.62
2023-03-01T13:07:22.757Z,40.14
2023-03-01T13:10:56.667Z,40.00
2023-03-01T13:14:21.493Z,40.07
2023-03-01T13:17:44.200Z,40.15
2023-03-01T13:20:50.804Z,40.16
2023-03-01T13:23:54.107Z,39.94
2023-03-01T13:27:51.088Z,39.87
2023-03-01T13:30:54.394Z,39.85
2023-03-01T13:34:01.971Z,39.81
2023-03-01T13:37:19.579Z,39.64
2023-03-01T13:40:23.680Z,39.83
2023-03-01T13:43:37.280Z,39.98
2023-03-01T13:46:41.334Z,39.75
2023-03-01T13:49:47.679Z,39.31
2023-03-01T13:53:00.163Z,39.52
2023-03-01T13:56:09.150Z,39.46
2023-03-01T13:59:18.650Z,39.52
2023-03-01T14:02:21.834Z,39.72
2023-03-01T14:05:25.112Z,39.85
2023-03-01T14:08:30.172Z,39.78
2023-03-01T14:11:45.309Z,39.84
2023-03-01T14:15:19.885Z,39.56
2023-03-01T14:18:34.546Z,39.27
2023-03-01T14:21:37.988Z,39.42
2023-03-01T14:24:48.627Z,39.48
2023-03-01T14:28:02.933Z,39.39
2023-03-01T14:31:52.430Z,39.56
2023-03-01T14:34:57.778Z,39.60
2023-03-01T14:38:01.308Z,39.54
2023-03-01T14:41:13.730Z,39.62
2023-03-01T14:44:20.746Z,39.72
2023-03-01T14:47:27.129Z,39.97
2023-03-01T14:50:36.230Z,40.11
2023-03-01T14:53:50.375Z,40.40
2023-03-01T14:56:58.873Z,40.34
2023-03-01T15:00:06.484Z,40.33
2023-03-01T15:03:15.735Z,40.59
2023-03-01T15:06:22.701Z,40.88
2023-03-01T15:09:26.036Z,40.85
2023-03-01T15:12:29.190Z,41.01
2023-03-01T15:15:37.506Z,41.12
2023-03-01T15:18:49.604Z,41.14
2023-03-01T15:21:52.983Z,41.55
2023-03-01T15:24:56.735Z,41.72
2023-03-01T15:28:02.391Z,41.69
2023-03-01T15:31:20.252Z,41.96
2023-03-01T15:34:33.198Z,42.02
2023-03-01T15:37:41.281Z,42.43
2023-03-01T15:40:51.543Z,42.80
2023-03-01T15:43:56.884Z,42.60
2023-03-01T15:47:01.483Z,42.80
2023-03-01T15:50:05.442Z,43.28
2023-03-01T15:53:13.126Z,43.56
2023-03-01T15:56:16.463Z,43.81
2023-03-01T15:59:20.409Z,43.83
2023-03-01T16:02:25.411Z,44.24
2023-03-01T16:05:31.709Z,44.42
2023-03-01T16:08:34.936Z,44.16
2023-03-01T16:11:39.193Z,44.57
2023-03-01T16:14:43.071Z,44.78
2023-03-01T16:17:47.174Z,44.97
2023-03-01T16:20:55.227Z,44.91
2023-03-01T16:23:58.643Z,45.16
2023-03-01T16:27:01.910Z,45.30
2023-03-01T16:30:07.316Z,45.41
2023-03-01T16:33:25.185Z,45.53
2023-03-01T16:36:34.209Z,45.73
2023-03-01T16:39:39.721Z,45.75
2023-03-01T16:42:43.200Z,46.02
2023-03-01T16:45:47.561Z,46.28
2023-03-01T16:48:52.364Z,46.36
2023-03-01T16:51:55.631Z,46.28
2023-03-01T16:54:58.840Z,46.27
2023-03-01T16:58:02.605Z,46.35
2023-03-01T17:01:20.359Z,46.08
2023-03-01T17:04:23.587Z,46.22
2023-03-01T17:07:27.144Z,46.71
2023-03-01T17:10:30.429Z,46.74
2023-03-01T17:13:33.764Z,46.70
2023-03-01T17:16:39.433Z,46.66
2023-03-01T17:19:44.530Z,46.68
2023-03-01T17:22:52.765Z,46.97
2023-03-01T17:25:56.406Z,46.97
2023-03-01T17:29:04.043Z,47.26
2023-03-01T17:32:08.396Z,47.24
2023-03-01T17:35:12.533Z,47.15
2023-03-01T17:38:18.929Z,47.26
2023-03-01T17:41:25.140Z,47.38
2023-03-01T17:44:36.720Z,47.68
2023-03-01T17:47:40.630Z,48.07
2023-03-01T17:50:44.842Z,48.09
2023-03-01T17:53:48.047Z,48.09
2023-03-01T17:56:51.690Z,49.06
2023-03-01T17:59:55.062Z,48.78
2023-03-01T18:02:59.159Z,48.68
2023-03-01T18:06:02.938Z,48.62
2023-03-01T18:09:06.376Z,48.91
2023-03-01T18:12:10.891Z,48.66
2023-03-01T18:15:14.130Z,48.74
2023-03-01T18:18:17.942Z,48.76
2023-03-01T18:21:21.620Z,48.88
2023-03-01T18:24:24.941Z,49.01
2023-03-01T18:27:28.177Z,49.23
2023-03-01T18:30:32.863Z,49.54
2023-03-01T18:33:36.238Z,49.63
2023-03-01T18:36:41.405Z,49.86
2023-03-01T18:39:44.752Z,49.71
2023-03-01T18:42:48.113Z,49.73
2023-03-01T18:45:57.630Z,49.98
2023-03-01T18:49:00.987Z,49.82
2023-03-01T18:52:04.739Z,50.05
2023-03-01T18:55:08.306Z,49.93
2023-03-01T18:58:11.490Z,49.98
2023-03-01T19:01:26.852Z,50.05
2023-03-01T19:04:30.119Z,50.07
2023-03-01T19:07:35.463Z,50.26
2023-03-01T19:10:38.780Z,50.45
2023-03-01T19:13:42.005Z,50.57
2023-03-01T19:16:45.309Z,50.65
2023-03-01T19:19:50.165Z,50.45
2023-03-01T19:22:53.433Z,50.48
2023-03-01T19:26:11.554Z,50.64
2023-03-01T19:29:14.897Z,50.74
2023-03-01T19:32:18.326Z,50.67
2023-03-01T19:35:23.472Z,50.64
2023-03-01T19:38:28.136Z,50.89
2023-03-01T19:41:31.828Z,51.06
2023-03-01T19:44:35.085Z,51.13
2023-03-01T19:47:38.366Z,51.15
2023-03-01T19:50:45.166Z,51.05
2023-03-01T19:53:48.632Z,51.09
2023-03-01T19:56:52.038Z,50.97
2023-03-01T19:59:55.273Z,51.05
2023-03-01T20:02:58.701Z,51.16
2023-03-01T20:06:10.974Z,51.43
2023-03-01T20:09:21.347Z,51.35
2023-03-01T20:12:25.003Z,51.31
2023-03-01T20:15:28.656Z,51.50
2023-03-01T20:18:32.153Z,51.67
2023-03-01T20:21:35.500Z,51.75
2023-03-01T20:24:38.777Z,51.74
2023-03-01T20:27:47.141Z,51.89
2023-03-01T20:30:50.347Z,52.15
2023-03-01T20:33:58.512Z,52.12
2023-03-01T20:37:02.827Z,52.13
2023-03-01T20:40:07.309Z,52.13
2023-03-01T20:43:10.643Z,52.20
2023-03-01T20:46:15.138Z,52.27
2023-03-01T20:49:18.590Z,52.23
2023-03-01T20:52:21.912Z,52.32
2023-03-01T20:55:25.250Z,52.49
2023-03-01T20:58:32.734Z,52.45
2023-03-01T21:01:37.902Z,52.37
2023-03-01T21:04:41.207Z,52.40
2023-03-01T21:07:45.676Z,52.50
2023-03-01T21:10:53.199Z,52.66
2023-03-01T21:13:58.433Z,52.71
2023-03-01T21:17:01.579Z,52.96
2023-03-01T21:20:05.974Z,52.72
2023-03-01T21:23:09.825Z,52.87
2023-03-01T21:26:15.824Z,52.95
2023-03-01T21:29:19.055Z,52.86
2023-03-01T21:32:22.407Z,53.01
2023-03-01T21:35:25.784Z,53.19
2023-03-01T21:38:37.916Z,53.36
2023-03-01T21:41:41.258Z,53.41
2023-03-01T21:44:44.453Z,53.36
2023-03-01T21:47:47.638Z,53.41
2023-03-01T21:50:58.793Z,53.39
2023-03-01T21:54:02.912Z,53.33
2023-03-01T21:57:06.125Z,53.53
2023-03-01T22:00:11.270Z,53.62
2023-03-01T22:03:16.561Z,53.68
2023-03-01T22:06:29.675Z,53.67
2023-03-01T22:09:35.023Z,53.76
2023-03-01T22:12:38.319Z,53.94
2023-03-01T22:15:43.230Z,53.97
2023-03-01T22:18:47.116Z,54.04
2023-03-01T22:21:52.772Z,54.11
2023-03-01T22:24:55.998Z,54.18
2023-03-01T22:27:59.363Z,54.26
2023-03-01T22:31:06.333Z,54.28
2023-03-01T22:34:09.939Z,54.40
2023-03-01T22:37:13.432Z,54.33
2023-03-01T22:40:16.670Z,54.57
2023-03-01T22:43:19.901Z,54.60
2023-03-01T22:46:24.114Z,54.66
2023-03-01T22:49:27.371Z,54.55
2023-03-01T22:52:30.598Z,54.72
2023-03-01T22:55:33.794Z,54.45
2023-03-01T22:58:37.070Z,54.64
2023-03-01T23:01:42.292Z,54.61
2023-03-01T23:04:48.388Z,54.73
2023-03-01T23:07:51.585Z,54.82
2023-03-01T23:10:54.804Z,54.75
2023-03-01T23:13:58.755Z,54.79
2023-03-01T23:17:02.697Z,54.78
2023-03-01T23:20:10.504Z,54.93
2023-03-01T23:23:13.987Z,54.92
2023-03-01T23:26:18.462Z,55.09
2023-03-01T23:29:22.291Z,55.09
2023-03-01T23:32:25.914Z,54.92
2023-03-01T23:35:29.253Z,54.97
2023-03-01T23:38:32.684Z,54.93
2023-03-01T23:41:36.022Z,55.27
2023-03-01T23:44:40.874Z,55.26
2023-03-01T23:47:44.414Z,55.12
2023-03-01T23:50:48.397Z,54.98
2023-03-01T23:53:55.664Z,55.29
2023-03-01T23:56:59.005Z,55.13
